Time;durP1;ratioP1;P1;durP2;ratioP2;P2;SDS_P1;SDS_P2;PMS_P1;PMS_P2;Temp;Humidity;BMP_temperature;BMP_pressure;BME280_temperature;BME280_humidity;BME280_pressure;Samples;Min_cycle;Max_cycle;Signal;HPM_P1;HPM_P2
2024/01/21 00:01:37;;;;;;;;;;;;;;;;;;5019607;28;19952;-70
2024/01/21 00:04:03;;;;;;;;;;;;;;;;;;5007370;28;20629;-70
2024/01/21 00:06:28;;;;;;;;;;;;;;;;;;5020282;28;19917;-69
2024/01/21 00:08:53;;;;;;;;;;;;;;;;;;5020327;28;19916;-70
2024/01/21 00:11:19;;;;;;;;;;;;;;;;;;5020256;28;20525;-70
2024/01/21 00:13:44;;;;;;;;;;;;;;;;;;5020939;28;19924;-70
2024/01/21 00:16:09;;;;;;;;;;;;;;;;;;5022896;28;19944;-70
2024/01/21 00:18:35;;;;;;;;;;;;;;;;;;5021413;28;19921;-70
2024/01/21 00:21:00;;;;;;;;;;;;;;;;;;5017373;28;21042;-70
2024/01/21 00:23:26;;;;;;;;;;;;;;;;;;5022110;28;19995;-70
2024/01/21 00:25:51;;;;;;;;;;;;;;;;;;5023460;28;19995;-71
2024/01/21 00:28:17;;;;;;;;;;;;;;;;;;5023428;28;19921;-71
2024/01/21 00:30:42;;;;;;;;;;;;;;;;;;5022461;28;19941;-71
2024/01/21 00:33:08;;;;;;;;;;;;;;;;;;5023159;28;19924;-72
2024/01/21 00:35:34;;;;;;;;;;;;;;;;;;5022000;28;19916;-72
2024/01/21 00:37:59;;;;;;;;;;;;;;;;;;5014335;28;19951;-73
2024/01/21 00:40:25;;;;;;;;;;;;;;;;;;5020133;28;19917;-71
2024/01/21 00:42:50;;;;;;;;;;;;;;;;;;5023619;28;19928;-72
2024/01/21 00:45:15;;;;;;;;;;;;;;;;;;5021379;28;19925;-72
2024/01/21 00:47:41;;;;;;;;;;;;;;;;;;5003509;28;19943;-71
2024/01/21 00:50:06;;;;;;;;;;;;;;;;;;5022653;28;19940;-70
2024/01/21 00:52:32;;;;;;;;;;;;;;;;;;5015303;28;19917;-73
2024/01/21 00:54:57;;;;;;;;;;;;;;;;;;5020659;28;20165;-73
2024/01/21 00:57:23;;;;;;;;;;;;;;;;;;5022455;28;20372;-71
2024/01/21 00:59:49;;;;;;;;;;;;;;;;;;5004314;28;19923;-71
2024/01/21 01:02:14;;;;;;;;;;;;;;;;;;5021581;28;19913;-73
2024/01/21 01:04:42;;;;;;;;;;;;;;;;;;5020698;28;20020;-74
2024/01/21 01:07:07;;;;;;;;;;;;;;;;;;5034493;28;19921;-73
2024/01/21 01:09:36;;;;;;;;;;;;;;;;;;5021188;28;19917;-73
2024/01/21 01:12:04;;;;;;;;;;;;;;;;;;5035986;28;20587;-72
2024/01/21 01:14:29;;;;;;;;;;;;;;;;;;5019559;28;19921;-72
2024/01/21 01:16:54;;;;;;;;;;;;;;;;;;5021432;28;20385;-73
2024/01/21 01:19:20;;;;;;;;;;;;;;;;;;5023753;28;20429;-74
2024/01/21 01:21:45;;;;;;;;;;;;;;;;;;5012077;28;19925;-73
2024/01/21 01:24:13;;;;;;;;;;;;;;;;;;5019562;28;19921;-73
2024/01/21 01:26:39;;;;;;;;;;;;;;;;;;5030011;28;20641;-75
2024/01/21 01:29:04;;;;;;;;;;;;;;;;;;5003445;28;20028;-73
2024/01/21 01:31:29;;;;;;;;;;;;;;;;;;5017379;28;19921;-73
2024/01/21 01:33:55;;;;;;;;;;;;;;;;;;5022164;28;19921;-72
2024/01/21 01:36:20;;;;;;;;;;;;;;;;;;5011433;28;19925;-72
2024/01/21 01:38:45;;;;;;;;;;;;;;;;;;4998947;28;19921;-72
2024/01/21 01:41:11;;;;;;;;;;;;;;;;;;5033883;28;20484;-73
2024/01/21 01:43:41;;;;;;;;;;;;;;;;;;5023407;28;19921;-73
2024/01/21 01:46:07;;;;;;;;;;;;;;;;;;5053733;28;20415;-72
2024/01/21 01:48:32;;;;;;;;;;;;;;;;;;5019204;28;19916;-70
2024/01/21 01:50:57;;;;;;;;;;;;;;;;;;5008931;28;19963;-71
2024/01/21 01:53:23;;;;;;;;;;;;;;;;;;5014791;28;20012;-71
2024/01/21 01:55:48;;;;;;;;;;;;;;;;;;5017386;28;19917;-71
2024/01/21 01:58:13;;;;;;;;;;;;;;;;;;5052848;28;19939;-73
2024/01/21 02:00:39;;;;;;;;;;;;;;;;;;5003787;28;19920;-70
2024/01/21 02:03:05;;;;;;;;;;;;;;;;;;5018512;28;20000;-72
2024/01/21 02:05:33;;;;;;;;;;;;;;;;;;5004117;28;19913;-70
2024/01/21 02:08:00;;;;;;;;;;;;;;;;;;5020194;28;19960;-70
2024/01/21 02:10:29;;;;;;;;;;;;;;;;;;5037699;28;20050;-70
2024/01/21 02:12:54;;;;;;;;;;;;;;;;;;5020930;28;19917;-73
2024/01/21 02:15:20;;;;;;;;;;;;;;;;;;5004059;28;19928;-71
2024/01/21 02:17:45;;;;;;;;;;;;;;;;;;5020315;28;19925;-71
2024/01/21 02:20:11;;;;;;;;;;;;;;;;;;5022032;28;20688;-73
2024/01/21 02:22:38;;;;;;;;;;;;;;;;;;5015359;28;21175;-72
2024/01/21 02:25:04;;;;;;;;;;;;;;;;;;5006097;28;19974;-70
2024/01/21 02:27:29;;;;;;;;;;;;;;;;;;5019626;28;20519;-71
2024/01/21 02:29:55;;;;;;;;;;;;;;;;;;5033335;28;19952;-71
2024/01/21 02:32:22;;;;;;;;;;;;;;;;;;5020745;28;19928;-70
2024/01/21 02:34:47;;;;;;;;;;;;;;;;;;5021804;28;19924;-73
2024/01/21 02:37:13;;;;;;;;;;;;;;;;;;5013416;28;20027;-72
2024/01/21 02:39:38;;;;;;;;;;;;;;;;;;5020032;28;19998;-70
2024/01/21 02:42:03;;;;;;;;;;;;;;;;;;5021360;28;19928;-71
2024/01/21 02:44:29;;;;;;;;;;;;;;;;;;5019825;28;19921;-71
2024/01/21 02:46:57;;;;;;;;;;;;;;;;;;5020522;28;19921;-71
2024/01/21 02:49:24;;;;;;;;;;;;;;;;;;5020214;28;19990;-71
2024/01/21 02:51:52;;;;;;;;;;;;;;;;;;5015491;28;19918;-71
2024/01/21 02:54:17;;;;;;;;;;;;;;;;;;5019277;28;20498;-71
2024/01/21 02:56:42;;;;;;;;;;;;;;;;;;5019097;28;20042;-71
2024/01/21 02:59:08;;;;;;;;;;;;;;;;;;5020598;28;20664;-72
2024/01/21 03:01:33;;;;;;;;;;;;;;;;;;5019927;28;20038;-72
2024/01/21 03:04:01;;;;;;;;;;;;;;;;;;5019349;28;20018;-74
2024/01/21 03:06:26;;;;;;;;;;;;;;;;;;5019237;28;19963;-70
2024/01/21 03:08:54;;;;;;;;;;;;;;;;;;5001208;28;20011;-74
2024/01/21 03:11:19;;;;;;;;;;;;;;;;;;5019042;28;19931;-71
2024/01/21 03:13:45;;;;;;;;;;;;;;;;;;5018520;28;19999;-73
2024/01/21 03:16:10;;;;;;;;;;;;;;;;;;5015782;28;20044;-74
2024/01/21 03:18:38;;;;;;;;;;;;;;;;;;5021212;28;19941;-71
2024/01/21 03:21:04;;;;;;;;;;;;;;;;;;5014539;28;19943;-72
2024/01/21 03:23:29;;;;;;;;;;;;;;;;;;5016065;28;19921;-73
2024/01/21 03:25:54;;;;;;;;;;;;;;;;;;5012527;28;19917;-72
2024/01/21 03:28:20;;;;;;;;;;;;;;;;;;5014633;28;20577;-74
2024/01/21 03:30:45;;;;;;;;;;;;;;;;;;5016787;28;20361;-73
2024/01/21 03:33:11;;;;;;;;;;;;;;;;;;5036485;28;20372;-72
2024/01/21 03:35:36;;;;;;;;;;;;;;;;;;5024261;28;20852;-71
2024/01/21 03:38:01;;;;;;;;;;;;;;;;;;5003472;28;19943;-73
2024/01/21 03:40:27;;;;;;;;;;;;;;;;;;5023662;28;19917;-72
2024/01/21 03:42:55;;;;;;;;;;;;;;;;;;5034355;28;19921;-74
2024/01/21 03:45:20;;;;;;;;;;;;;;;;;;5024723;28;19932;-72
2024/01/21 03:47:45;;;;;;;;;;;;;;;;;;5022155;28;19987;-71
2024/01/21 03:50:11;;;;;;;;;;;;;;;;;;5025418;28;19925;-72
2024/01/21 03:52:36;;;;;;;;;;;;;;;;;;5014228;28;19929;-72
2024/01/21 03:55:02;;;;;;;;;;;;;;;;;;5023845;28;19917;-73
2024/01/21 03:57:27;;;;;;;;;;;;;;;;;;5024694;28;19929;-72
2024/01/21 03:59:53;;;;;;;;;;;;;;;;;;5025938;28;19924;-74
2024/01/21 04:02:19;;;;;;;;;;;;;;;;;;5038974;28;19995;-73
2024/01/21 04:04:45;;;;;;;;;;;;;;;;;;5023756;28;19921;-73
2024/01/21 04:07:10;;;;;;;;;;;;;;;;;;5019017;28;20313;-74
2024/01/21 04:09:35;;;;;;;;;;;;;;;;;;5034119;28;20143;-76
2024/01/21 04:12:01;;;;;;;;;;;;;;;;;;5025260;28;20067;-75
2024/01/21 04:14:26;;;;;;;;;;;;;;;;;;5021417;28;19917;-76
2024/01/21 04:16:52;;;;;;;;;;;;;;;;;;5022678;28;19932;-75
2024/01/21 04:19:17;;;;;;;;;;;;;;;;;;5004977;28;19921;-76
2024/01/21 04:21:42;;;;;;;;;;;;;;;;;;5019906;28;19924;-74
2024/01/21 04:24:08;;;;;;;;;;;;;;;;;;5005772;28;19917;-74
2024/01/21 04:26:33;;;;;;;;;;;;;;;;;;5023857;28;19921;-74
2024/01/21 04:28:58;;;;;;;;;;;;;;;;;;5038664;28;19927;-74
2024/01/21 04:31:24;;;;;;;;;;;;;;;;;;5005580;28;19921;-73
2024/01/21 04:33:49;;;;;;;;;;;;;;;;;;5023499;28;19995;-73
2024/01/21 04:36:14;;;;;;;;;;;;;;;;;;5023356;28;20456;-73
2024/01/21 04:38:40;;;;;;;;;;;;;;;;;;5024561;28;20431;-74
2024/01/21 04:41:05;;;;;;;;;;;;;;;;;;5040817;28;19921;-72
2024/01/21 04:43:33;;;;;;;;;;;;;;;;;;5022825;28;20011;-73
2024/01/21 04:45:58;;;;;;;;;;;;;;;;;;5022092;28;19925;-73
2024/01/21 04:48:24;;;;;;;;;;;;;;;;;;5006239;28;19916;-73
2024/01/21 04:50:49;;;;;;;;;;;;;;;;;;5020505;28;20039;-73
2024/01/21 04:53:14;;;;;;;;;;;;;;;;;;5021581;28;20648;-74
2024/01/21 04:55:40;;;;;;;;;;;;;;;;;;5014270;28;19921;-72
2024/01/21 04:58:05;;;;;;;;;;;;;;;;;;5022935;28;19964;-73
2024/01/21 05:00:30;;;;;;;;;;;;;;;;;;5022354;28;20392;-72
2024/01/21 05:02:58;;;;;;;;;;;;;;;;;;5022505;28;19996;-73
2024/01/21 05:05:23;;;;;;;;;;;;;;;;;;5022985;28;19925;-75
2024/01/21 05:07:49;;;;;;;;;;;;;;;;;;5018234;28;20364;-76
2024/01/21 05:10:14;;;;;;;;;;;;;;;;;;5021446;28;19916;-74
2024/01/21 05:12:39;;;;;;;;;;;;;;;;;;5055815;28;20332;-74
2024/01/21 05:15:05;;;;;;;;;;;;;;;;;;5020445;28;19964;-75
2024/01/21 05:17:30;;;;;;;;;;;;;;;;;;5000339;28;20481;-74
2024/01/21 05:19:56;;;;;;;;;;;;;;;;;;5028343;28;19966;-74
2024/01/21 05:22:21;;;;;;;;;;;;;;;;;;5022204;28;19917;-74
2024/01/21 05:24:47;;;;;;;;;;;;;;;;;;5023458;28;19917;-74
2024/01/21 05:27:12;;;;;;;;;;;;;;;;;;5003050;28;19929;-74
2024/01/21 05:29:40;;;;;;;;;;;;;;;;;;5018874;28;19939;-75
2024/01/21 05:32:05;;;;;;;;;;;;;;;;;;5034896;28;19921;-75
2024/01/21 05:34:30;;;;;;;;;;;;;;;;;;5018756;28;19917;-75
2024/01/21 05:36:56;;;;;;;;;;;;;;;;;;5037992;28;19933;-73
2024/01/21 05:39:21;;;;;;;;;;;;;;;;;;5022655;28;19921;-73
2024/01/21 05:41:46;;;;;;;;;;;;;;;;;;5024673;28;20033;-73
2024/01/21 05:44:11;;;;;;;;;;;;;;;;;;5020248;28;19924;-73
2024/01/21 05:46:37;;;;;;;;;;;;;;;;;;5020110;28;19959;-74
2024/01/21 05:49:02;;;;;;;;;;;;;;;;;;5019889;28;19944;-73
2024/01/21 05:51:27;;;;;;;;;;;;;;;;;;5019757;28;19921;-74
2024/01/21 05:53:55;;;;;;;;;;;;;;;;;;5021202;28;19921;-73
2024/01/21 05:56:20;;;;;;;;;;;;;;;;;;5020985;28;19987;-72
2024/01/21 06:02:02;;;;;;;;;;;;;;;;;;5017369;28;20030;-71
2024/01/21 06:04:30;;;;;;;;;;;;;;;;;;5035964;28;19977;-72
2024/01/21 06:06:59;;;;;;;;;;;;;;;;;;5034685;28;20412;-73
2024/01/21 06:09:24;;;;;;;;;;;;;;;;;;5036360;28;19921;-75
2024/01/21 06:11:49;;;;;;;;;;;;;;;;;;5020776;28;19921;-74
2024/01/21 06:14:15;;;;;;;;;;;;;;;;;;5020011;28;19917;-74
2024/01/21 06:16:40;;;;;;;;;;;;;;;;;;5021498;28;19925;-74
2024/01/21 06:19:06;;;;;;;;;;;;;;;;;;5020079;28;19920;-74
2024/01/21 06:21:34;;;;;;;;;;;;;;;;;;5001819;28;19923;-73
2024/01/21 06:23:59;;;;;;;;;;;;;;;;;;5019929;28;20169;-74
2024/01/21 06:26:25;;;;;;;;;;;;;;;;;;5020343;28;19951;-74
2024/01/21 06:28:53;;;;;;;;;;;;;;;;;;5018732;28;19944;-74
2024/01/21 06:31:18;;;;;;;;;;;;;;;;;;5049814;28;20293;-73
2024/01/21 06:33:46;;;;;;;;;;;;;;;;;;5032162;28;20288;-72
2024/01/21 06:36:12;;;;;;;;;;;;;;;;;;5034769;28;19917;-73
2024/01/21 06:38:37;;;;;;;;;;;;;;;;;;5021775;28;21532;-73
2024/01/21 06:41:03;;;;;;;;;;;;;;;;;;5036954;28;20042;-75
2024/01/21 06:43:28;;;;;;;;;;;;;;;;;;5020026;28;19999;-73
2024/01/21 06:45:56;;;;;;;;;;;;;;;;;;5019479;28;20530;-73
2024/01/21 06:48:21;;;;;;;;;;;;;;;;;;5052027;28;19916;-74
2024/01/21 06:50:53;;;;;;;;;;;;;;;;;;5020542;28;20754;-75
2024/01/21 06:53:21;;;;;;;;;;;;;;;;;;5020483;28;19999;-73
2024/01/21 06:55:46;;;;;;;;;;;;;;;;;;5036021;28;19927;-72
2024/01/21 06:58:11;;;;;;;;;;;;;;;;;;5016695;28;19929;-74
2024/01/21 07:00:37;;;;;;;;;;;;;;;;;;5032653;28;20435;-73
2024/01/21 07:03:02;;;;;;;;;;;;;;;;;;5018049;28;19928;-74
2024/01/21 07:05:27;;;;;;;;;;;;;;;;;;5000383;28;19930;-74
2024/01/21 07:07:53;;;;;;;;;;;;;;;;;;5018365;28;20419;-72
2024/01/21 07:10:18;;;;;;;;;;;;;;;;;;5016697;28;19929;-75
2024/01/21 07:12:44;;;;;;;;;;;;;;;;;;5018171;28;19970;-73
2024/01/21 07:15:09;;;;;;;;;;;;;;;;;;5015355;28;19966;-71
2024/01/21 07:17:34;;;;;;;;;;;;;;;;;;5019829;28;19925;-74
2024/01/21 07:20:03;;;;;;;;;;;;;;;;;;5017288;28;19960;-74
2024/01/21 07:22:28;;;;;;;;;;;;;;;;;;5013192;28;20473;-73
2024/01/21 07:24:53;;;;;;;;;;;;;;;;;;5018823;28;19916;-71
2024/01/21 07:27:21;;;;;;;;;;;;;;;;;;5020481;28;19921;-74
2024/01/21 07:29:46;;;;;;;;;;;;;;;;;;5020154;28;19932;-72
2024/01/21 07:32:12;;;;;;;;;;;;;;;;;;5017362;28;19955;-73
2024/01/21 07:34:37;;;;;;;;;;;;;;;;;;5027009;28;20652;-71
2024/01/21 07:37:02;;;;;;;;;;;;;;;;;;5021736;28;19921;-73
2024/01/21 07:39:27;;;;;;;;;;;;;;;;;;5020041;28;20394;-72
2024/01/21 07:41:53;;;;;;;;;;;;;;;;;;5022231;28;19917;-73
2024/01/21 07:44:18;;;;;;;;;;;;;;;;;;5017070;28;20020;-73
2024/01/21 07:46:44;;;;;;;;;;;;;;;;;;5033254;28;20391;-73
2024/01/21 07:49:09;;;;;;;;;;;;;;;;;;5001351;28;19917;-72
2024/01/21 07:51:34;;;;;;;;;;;;;;;;;;5015907;28;19945;-74
2024/01/21 07:53:59;;;;;;;;;;;;;;;;;;5020275;28;19968;-72
2024/01/21 07:56:27;;;;;;;;;;;;;;;;;;5019027;28;19947;-74
2024/01/21 07:58:53;;;;;;;;;;;;;;;;;;5052659;28;19917;-71
2024/01/21 08:01:21;;;;;;;;;;;;;;;;;;4997175;28;19975;-72
2024/01/21 08:03:49;;;;;;;;;;;;;;;;;;5018981;28;19917;-71
2024/01/21 08:06:16;;;;;;;;;;;;;;;;;;5015568;28;20558;-73
2024/01/21 08:08:42;;;;;;;;;;;;;;;;;;5023202;28;19924;-74
2024/01/21 08:11:07;;;;;;;;;;;;;;;;;;5017938;28;20319;-74
2024/01/21 08:16:28;;;;;;;;;;;;;;;;;;5052442;28;19963;-74
2024/01/21 08:18:53;;;;;;;;;;;;;;;;;;5019449;28;20044;-72
2024/01/21 08:21:21;;;;;;;;;;;;;;;;;;5003766;28;20372;-72
2024/01/21 08:23:46;;;;;;;;;;;;;;;;;;5022403;28;19967;-72
2024/01/21 08:26:11;;;;;;;;;;;;;;;;;;5024330;28;20014;-73
2024/01/21 08:28:37;;;;;;;;;;;;;;;;;;5023101;28;20027;-74
2024/01/21 08:31:03;;;;;;;;;;;;;;;;;;5021585;28;19932;-72
2024/01/21 08:33:29;;;;;;;;;;;;;;;;;;5023743;28;20335;-73
2024/01/21 08:35:54;;;;;;;;;;;;;;;;;;5003126;28;19924;-74
2024/01/21 08:38:19;;;;;;;;;;;;;;;;;;5023867;28;19925;-71
2024/01/21 08:40:44;;;;;;;;;;;;;;;;;;5022878;28;19920;-72
2024/01/21 08:43:10;;;;;;;;;;;;;;;;;;5023512;28;19921;-73
2024/01/21 08:45:35;;;;;;;;;;;;;;;;;;5019478;28;20335;-72
2024/01/21 08:48:00;;;;;;;;;;;;;;;;;;5009535;28;20300;-71
2024/01/21 08:50:26;;;;;;;;;;;;;;;;;;5025041;28;19964;-73
2024/01/21 08:52:51;;;;;;;;;;;;;;;;;;5023976;28;20284;-73
2024/01/21 08:55:16;;;;;;;;;;;;;;;;;;5023686;28;19925;-73
2024/01/21 08:57:44;;;;;;;;;;;;;;;;;;5013104;28;19929;-78
2024/01/21 09:00:10;;;;;;;;;;;;;;;;;;5021888;28;20007;-71
2024/01/21 09:02:35;;;;;;;;;;;;;;;;;;5016093;28;20008;-72
2024/01/21 09:05:00;;;;;;;;;;;;;;;;;;5020100;28;19921;-70
2024/01/21 09:07:26;;;;;;;;;;;;;;;;;;5019166;28;19923;-72
2024/01/21 09:09:51;;;;;;;;;;;;;;;;;;5023271;28;19924;-71
2024/01/21 09:12:16;;;;;;;;;;;;;;;;;;5025351;28;19917;-72
2024/01/21 09:14:42;;;;;;;;;;;;;;;;;;5013542;28;20376;-73
2024/01/21 09:17:07;;;;;;;;;;;;;;;;;;5036765;28;19931;-71
2024/01/21 09:19:35;;;;;;;;;;;;;;;;;;5017837;28;19920;-71
2024/01/21 09:22:01;;;;;;;;;;;;;;;;;;5051262;28;20483;-71
2024/01/21 09:24:26;;;;;;;;;;;;;;;;;;5023424;28;19972;-72
2024/01/21 09:26:52;;;;;;;;;;;;;;;;;;5023742;28;19924;-74
2024/01/21 09:29:17;;;;;;;;;;;;;;;;;;5016955;28;20385;-72
2024/01/21 09:31:43;;;;;;;;;;;;;;;;;;5022589;28;20369;-74
2024/01/21 09:34:08;;;;;;;;;;;;;;;;;;5016388;28;19921;-73
2024/01/21 09:36:34;;;;;;;;;;;;;;;;;;5020654;28;20468;-73
2024/01/21 09:39:00;;;;;;;;;;;;;;;;;;5024611;28;19923;-73
2024/01/21 09:41:25;;;;;;;;;;;;;;;;;;5001665;28;19921;-74
2024/01/21 09:43:51;;;;;;;;;;;;;;;;;;5022446;28;20450;-73
2024/01/21 09:46:16;;;;;;;;;;;;;;;;;;5017638;28;19928;-73
2024/01/21 09:48:45;;;;;;;;;;;;;;;;;;5008769;28;19917;-74
2024/01/21 09:51:10;;;;;;;;;;;;;;;;;;5053869;28;19979;-74
2024/01/21 09:53:36;;;;;;;;;;;;;;;;;;5023852;28;20656;-74
2024/01/21 09:56:01;;;;;;;;;;;;;;;;;;5023954;28;20361;-72
2024/01/21 09:58:26;;;;;;;;;;;;;;;;;;5022868;28;19929;-75
2024/01/21 10:00:52;;;;;;;;;;;;;;;;;;5019584;28;19921;-74
2024/01/21 10:03:18;;;;;;;;;;;;;;;;;;5036448;28;20047;-75
2024/01/21 10:05:43;;;;;;;;;;;;;;;;;;5022996;28;19928;-75
2024/01/21 10:08:08;;;;;;;;;;;;;;;;;;5022262;28;19920;-73
2024/01/21 10:10:33;;;;;;;;;;;;;;;;;;5003241;28;19960;-74
2024/01/21 10:12:59;;;;;;;;;;;;;;;;;;5037658;28;19994;-73
2024/01/21 10:15:24;;;;;;;;;;;;;;;;;;5024322;28;20055;-72
2024/01/21 10:17:49;;;;;;;;;;;;;;;;;;5021171;28;19935;-72
2024/01/21 10:20:15;;;;;;;;;;;;;;;;;;5022160;28;19921;-73
2024/01/21 10:22:41;;;;;;;;;;;;;;;;;;5021452;28;20238;-71
2024/01/21 10:25:07;;;;;;;;;;;;;;;;;;5002027;28;20377;-72
2024/01/21 10:27:41;;;;;;;;;;;;;;;;;;5020105;28;19927;-70
2024/01/21 10:30:07;;;;;;;;;;;;;;;;;;5022069;28;20388;-71
2024/01/21 10:32:35;;;;;;;;;;;;;;;;;;5018704;28;20470;-69
2024/01/21 10:35:01;;;;;;;;;;;;;;;;;;5023445;28;19917;-69
2024/01/21 10:37:29;;;;;;;;;;;;;;;;;;5020638;28;20276;-70
2024/01/21 10:39:57;;;;;;;;;;;;;;;;;;5023857;28;19985;-70
2024/01/21 10:42:22;;;;;;;;;;;;;;;;;;5018812;28;20400;-70
2024/01/21 10:44:48;;;;;;;;;;;;;;;;;;5037925;28;20028;-69
2024/01/21 10:47:16;;;;;;;;;;;;;;;;;;5016830;28;19939;-69
2024/01/21 10:49:41;;;;;;;;;;;;;;;;;;5019651;28;19921;-68
2024/01/21 10:52:07;;;;;;;;;;;;;;;;;;5018398;28;20478;-69
2024/01/21 10:54:37;;;;;;;;;;;;;;;;;;5000570;28;20239;-69
2024/01/21 10:57:06;;;;;;;;;;;;;;;;;;5054068;28;19924;-69
2024/01/21 10:59:31;;;;;;;;;;;;;;;;;;5021184;28;19921;-68
2024/01/21 11:01:57;;;;;;;;;;;;;;;;;;5034624;28;19935;-69
2024/01/21 11:04:25;;;;;;;;;;;;;;;;;;5002488;28;19989;-70
2024/01/21 11:06:51;;;;;;;;;;;;;;;;;;5022891;28;19916;-70
2024/01/21 11:09:17;;;;;;;;;;;;;;;;;;5002923;28;19921;-69
2024/01/21 11:11:42;;;;;;;;;;;;;;;;;;5020583;28;20223;-70
2024/01/21 11:14:08;;;;;;;;;;;;;;;;;;5003051;28;19940;-69
2024/01/21 11:16:36;;;;;;;;;;;;;;;;;;5021016;28;19923;-69
2024/01/21 11:19:03;;;;;;;;;;;;;;;;;;5019260;28;19921;-68
2024/01/21 11:21:31;;;;;;;;;;;;;;;;;;5020821;28;19967;-68
2024/01/21 11:24:00;;;;;;;;;;;;;;;;;;5019530;28;19925;-67
2024/01/21 11:26:25;;;;;;;;;;;;;;;;;;5003937;28;19925;-68
2024/01/21 11:28:50;;;;;;;;;;;;;;;;;;5004290;28;19929;-68
2024/01/21 11:31:16;;;;;;;;;;;;;;;;;;5003862;28;19921;-69
2024/01/21 11:33:41;;;;;;;;;;;;;;;;;;5040173;28;20311;-68
2024/01/21 11:36:07;;;;;;;;;;;;;;;;;;5033174;28;19917;-68
2024/01/21 11:38:33;;;;;;;;;;;;;;;;;;5003818;28;19931;-68
2024/01/21 11:40:58;;;;;;;;;;;;;;;;;;5036946;28;19921;-68
2024/01/21 11:43:26;;;;;;;;;;;;;;;;;;5021518;28;19917;-67
2024/01/21 11:45:52;;;;;;;;;;;;;;;;;;5000763;28;20337;-68
2024/01/21 11:48:17;;;;;;;;;;;;;;;;;;5017851;28;19921;-68
2024/01/21 11:50:42;;;;;;;;;;;;;;;;;;5018977;28;19916;-70
2024/01/21 11:53:08;;;;;;;;;;;;;;;;;;5021759;28;20067;-70
2024/01/21 11:55:35;;;;;;;;;;;;;;;;;;5019434;28;19928;-69
2024/01/21 11:58:01;;;;;;;;;;;;;;;;;;5025989;28;20414;-69
2024/01/21 12:00:26;;;;;;;;;;;;;;;;;;5024605;28;19959;-68
2024/01/21 12:02:54;;;;;;;;;;;;;;;;;;5025421;28;19975;-69
2024/01/21 12:05:22;;;;;;;;;;;;;;;;;;5025290;28;20018;-68
2024/01/21 12:07:50;;;;;;;;;;;;;;;;;;5024866;28;20270;-69
2024/01/21 12:10:18;;;;;;;;;;;;;;;;;;5025826;28;20532;-70
2024/01/21 12:12:43;;;;;;;;;;;;;;;;;;5023154;28;19917;-69
2024/01/21 12:15:09;;;;;;;;;;;;;;;;;;5025423;28;19956;-70
2024/01/21 12:17:34;;;;;;;;;;;;;;;;;;5023197;28;19921;-68
2024/01/21 12:20:00;;;;;;;;;;;;;;;;;;5042468;28;20375;-68
2024/01/21 12:22:25;;;;;;;;;;;;;;;;;;5041042;28;20013;-70
2024/01/21 12:24:50;;;;;;;;;;;;;;;;;;5025748;28;19917;-69
2024/01/21 12:27:18;;;;;;;;;;;;;;;;;;5025014;28;20447;-68
2024/01/21 12:29:44;;;;;;;;;;;;;;;;;;5041601;28;19955;-69
2024/01/21 12:32:09;;;;;;;;;;;;;;;;;;5027882;28;20011;-69
2024/01/21 12:34:35;;;;;;;;;;;;;;;;;;5025175;28;19921;-68
2024/01/21 12:37:00;;;;;;;;;;;;;;;;;;5041935;28;20360;-67
2024/01/21 12:39:25;;;;;;;;;;;;;;;;;;5025866;28;19921;-69
2024/01/21 12:41:53;;;;;;;;;;;;;;;;;;5025365;28;19928;-69
2024/01/21 12:44:19;;;;;;;;;;;;;;;;;;5006943;28;20400;-69
2024/01/21 12:46:45;;;;;;;;;;;;;;;;;;5028594;28;20006;-68
2024/01/21 12:49:10;;;;;;;;;;;;;;;;;;5042214;28;19917;-69
2024/01/21 12:51:35;;;;;;;;;;;;;;;;;;5026707;28;19921;-68
2024/01/21 12:54:01;;;;;;;;;;;;;;;;;;5038942;28;19928;-68
2024/01/21 12:56:26;;;;;;;;;;;;;;;;;;5025330;28;20479;-68
2024/01/21 12:58:54;;;;;;;;;;;;;;;;;;5056447;28;20077;-68
2024/01/21 13:01:19;;;;;;;;;;;;;;;;;;5058522;28;19922;-66
2024/01/21 13:03:45;;;;;;;;;;;;;;;;;;5007970;28;20281;-68
2024/01/21 13:06:13;;;;;;;;;;;;;;;;;;5025761;28;19921;-67
2024/01/21 13:08:41;;;;;;;;;;;;;;;;;;5023001;28;19921;-70
2024/01/21 13:11:10;;;;;;;;;;;;;;;;;;5025471;28;19917;-68
2024/01/21 13:13:35;;;;;;;;;;;;;;;;;;5024057;28;19921;-66
2024/01/21 13:16:01;;;;;;;;;;;;;;;;;;5008439;28;19921;-66
2024/01/21 13:18:28;;;;;;;;;;;;;;;;;;5041408;28;20063;-68
2024/01/21 13:20:53;;;;;;;;;;;;;;;;;;5024857;28;20558;-68
2024/01/21 13:23:18;;;;;;;;;;;;;;;;;;5057609;28;20088;-66
2024/01/21 13:25:44;;;;;;;;;;;;;;;;;;5021691;28;19921;-67
2024/01/21 13:30:49;;;;;;;;;;;;;;;;;;5055380;28;20012;-67
2024/01/21 13:33:14;;;;;;;;;;;;;;;;;;5025924;28;19920;-66
2024/01/21 13:35:39;;;;;;;;;;;;;;;;;;5034081;28;19956;-66
2024/01/21 13:38:07;;;;;;;;;;;;;;;;;;5024546;28;20497;-66
2024/01/21 13:40:36;;;;;;;;;;;;;;;;;;5008773;28;19928;-66
2024/01/21 13:43:01;;;;;;;;;;;;;;;;;;5024496;28;19943;-66
2024/01/21 13:45:26;;;;;;;;;;;;;;;;;;5024219;28;19972;-65
2024/01/21 13:47:54;;;;;;;;;;;;;;;;;;5024875;28;20023;-66
2024/01/21 13:53:36;;;;;;;;;;;;;;;;;;5027033;28;19970;-66
2024/01/21 13:56:04;;;;;;;;;;;;;;;;;;5056247;28;19917;-66
2024/01/21 13:58:31;;;;;;;;;;;;;;;;;;5038984;28;19979;-66
2024/01/21 14:00:57;;;;;;;;;;;;;;;;;;5026605;28;19921;-65
2024/01/21 14:03:27;;;;;;;;;;;;;;;;;;5022962;28;20043;-65
2024/01/21 14:05:58;;;;;;;;;;;;;;;;;;5022875;28;20448;-66
2024/01/21 14:08:25;;;;;;;;;;;;;;;;;;5056331;28;20379;-64
2024/01/21 14:10:53;;;;;;;;;;;;;;;;;;5025579;28;19928;-65
2024/01/21 14:16:37;;;;;;;;;;;;;;;;;;5022496;28;19939;-66
2024/01/21 14:19:05;;;;;;;;;;;;;;;;;;5032951;28;20411;-65
2024/01/21 14:21:33;;;;;;;;;;;;;;;;;;5023150;28;20411;-66
2024/01/21 14:24:03;;;;;;;;;;;;;;;;;;5022897;28;20023;-66
2024/01/21 14:26:28;;;;;;;;;;;;;;;;;;5020969;28;20280;-65
2024/01/21 14:28:54;;;;;;;;;;;;;;;;;;5023837;28;19928;-65
2024/01/21 14:31:19;;;;;;;;;;;;;;;;;;5038797;28;20380;-65
2024/01/21 14:37:03;;;;;;;;;;;;;;;;;;5026158;28;20310;-68
2024/01/21 14:39:34;;;;;;;;;;;;;;;;;;5023172;28;20550;-66
2024/01/21 14:41:59;;;;;;;;;;;;;;;;;;5023060;28;20357;-63
2024/01/21 14:44:25;;;;;;;;;;;;;;;;;;5039872;28;19921;-65
2024/01/21 14:46:50;;;;;;;;;;;;;;;;;;5005350;28;19921;-65
2024/01/21 14:49:15;;;;;;;;;;;;;;;;;;5038789;28;19927;-65
2024/01/21 14:51:40;;;;;;;;;;;;;;;;;;5040100;28;19923;-65
2024/01/21 14:54:08;;;;;;;;;;;;;;;;;;5022669;28;20522;-65
2024/01/21 14:56:33;;;;;;;;;;;;;;;;;;5023485;28;20378;-64
2024/01/21 14:59:01;;;;;;;;;;;;;;;;;;5022483;28;19917;-63
2024/01/21 15:01:29;;;;;;;;;;;;;;;;;;5026395;28;20001;-64
2024/01/21 15:03:54;;;;;;;;;;;;;;;;;;5021660;28;20059;-65
2024/01/21 15:06:20;;;;;;;;;;;;;;;;;;5022759;28;20572;-64
2024/01/21 15:08:46;;;;;;;;;;;;;;;;;;5022894;28;19943;-64
2024/01/21 15:11:11;;;;;;;;;;;;;;;;;;5037397;28;20327;-63
2024/01/21 15:13:36;;;;;;;;;;;;;;;;;;5038036;28;19921;-64
2024/01/21 15:16:01;;;;;;;;;;;;;;;;;;5023265;28;19916;-65
2024/01/21 15:18:30;;;;;;;;;;;;;;;;;;5023827;28;20388;-64
2024/01/21 15:20:56;;;;;;;;;;;;;;;;;;5021379;28;20103;-64
2024/01/21 15:23:24;;;;;;;;;;;;;;;;;;5024553;28;19924;-63
2024/01/21 15:25:52;;;;;;;;;;;;;;;;;;5053052;28;19975;-67
2024/01/21 15:28:19;;;;;;;;;;;;;;;;;;5022462;28;19925;-63
2024/01/21 15:30:48;;;;;;;;;;;;;;;;;;5024608;28;20199;-63
2024/01/21 15:33:13;;;;;;;;;;;;;;;;;;5026380;28;20004;-63
2024/01/21 15:35:39;;;;;;;;;;;;;;;;;;5026201;28;19958;-62
2024/01/21 15:38:05;;;;;;;;;;;;;;;;;;5040742;28;20025;-64
2024/01/21 15:40:33;;;;;;;;;;;;;;;;;;5025666;28;19928;-63
2024/01/21 15:42:58;;;;;;;;;;;;;;;;;;5026535;28;20371;-63
2024/01/21 15:45:24;;;;;;;;;;;;;;;;;;5043835;28;20010;-63
2024/01/21 15:47:52;;;;;;;;;;;;;;;;;;5024354;28;19921;-63
2024/01/21 15:50:17;;;;;;;;;;;;;;;;;;5009112;28;19917;-62
2024/01/21 15:52:42;;;;;;;;;;;;;;;;;;5005906;28;19921;-63
2024/01/21 15:55:13;;;;;;;;;;;;;;;;;;5025743;28;19921;-63
2024/01/21 15:57:38;;;;;;;;;;;;;;;;;;5024591;28;19929;-61
2024/01/21 16:00:07;;;;;;;;;;;;;;;;;;5025063;28;20422;-62
2024/01/21 16:02:32;;;;;;;;;;;;;;;;;;5025965;28;19924;-64
2024/01/21 16:04:57;;;;;;;;;;;;;;;;;;5025837;28;20016;-64
2024/01/21 16:07:23;;;;;;;;;;;;;;;;;;5026745;28;20644;-62
2024/01/21 16:09:49;;;;;;;;;;;;;;;;;;5008874;28;20296;-63
2024/01/21 16:12:15;;;;;;;;;;;;;;;;;;5029361;28;19944;-63
2024/01/21 16:14:43;;;;;;;;;;;;;;;;;;5022375;28;20372;-63
2024/01/21 16:17:11;;;;;;;;;;;;;;;;;;5026356;28;19936;-63
2024/01/21 16:19:36;;;;;;;;;;;;;;;;;;5025671;28;20486;-62
2024/01/21 16:22:01;;;;;;;;;;;;;;;;;;5026808;28;19921;-62
2024/01/21 16:24:32;;;;;;;;;;;;;;;;;;5058358;28;20058;-62
2024/01/21 16:27:00;;;;;;;;;;;;;;;;;;5024734;28;19991;-62
2024/01/21 16:29:25;;;;;;;;;;;;;;;;;;5022412;28;19917;-62
2024/01/21 16:31:51;;;;;;;;;;;;;;;;;;5026000;28;20255;-63
2024/01/21 16:34:18;;;;;;;;;;;;;;;;;;5041059;28;19983;-63
2024/01/21 16:36:44;;;;;;;;;;;;;;;;;;5025419;28;19925;-62
2024/01/21 16:39:09;;;;;;;;;;;;;;;;;;5024533;28;19971;-63
2024/01/21 16:41:34;;;;;;;;;;;;;;;;;;5023966;28;19917;-63
2024/01/21 16:44:01;;;;;;;;;;;;;;;;;;5026329;28;20355;-63
2024/01/21 16:46:26;;;;;;;;;;;;;;;;;;5015280;28;20046;-63
2024/01/21 16:48:54;;;;;;;;;;;;;;;;;;5023264;28;20011;-62
2024/01/21 16:51:24;;;;;;;;;;;;;;;;;;5021107;28;20416;-63
2024/01/21 16:53:52;;;;;;;;;;;;;;;;;;5035953;28;19932;-62
2024/01/21 16:56:18;;;;;;;;;;;;;;;;;;5008504;28;20047;-62